sensor_id;sensor_type;location;lat;lon;timestamp;P1;durP1;ratioP1;P2;durP2;ratioP2
50367;SDS011;36281;34.132;-118.018;2023-05-27T00:00:05;6.10;;;3.47;;
50367;SDS011;36281;34.132;-118.018;2023-05-27T00:02:38;3.55;;;3.15;;
50367;SDS011;36281;34.132;-118.018;2023-05-27T00:05:08;4.22;;;2.97;;
50367;SDS011;36281;34.132;-118.018;2023-05-27T00:07:37;6.60;;;3.38;;
50367;SDS011;36281;34.132;-118.018;2023-05-27T00:10:07;6.20;;;3.10;;
50367;SDS011;36281;34.132;-118.018;2023-05-27T00:12:38;4.75;;;3.08;;
50367;SDS011;36281;34.132;-118.018;2023-05-27T00:15:08;6.03;;;3.22;;
50367;SDS011;36281;34.132;-118.018;2023-05-27T00:17:37;4.78;;;3.25;;
50367;SDS011;36281;34.132;-118.018;2023-05-27T00:20:08;6.57;;;3.58;;
50367;SDS011;36281;34.132;-118.018;2023-05-27T00:22:38;5.82;;;3.20;;
50367;SDS011;36281;34.132;-118.018;2023-05-27T00:25:07;7.10;;;3.45;;
50367;SDS011;36281;34.132;-118.018;2023-05-27T00:27:38;3.83;;;2.80;;
50367;SDS011;36281;34.132;-118.018;2023-05-27T00:30:08;3.30;;;3.00;;
50367;SDS011;36281;34.132;-118.018;2023-05-27T00:32:37;5.55;;;3.05;;
50367;SDS011;36281;34.132;-118.018;2023-05-27T00:35:07;6.00;;;3.38;;
50367;SDS011;36281;34.132;-118.018;2023-05-27T00:37:37;5.03;;;3.10;;
50367;SDS011;36281;34.132;-118.018;2023-05-27T00:40:07;5.28;;;2.97;;
50367;SDS011;36281;34.132;-118.018;2023-05-27T00:42:40;5.07;;;2.92;;
50367;SDS011;36281;34.132;-118.018;2023-05-27T00:45:10;4.65;;;3.00;;
50367;SDS011;36281;34.132;-118.018;2023-05-27T00:47:40;5.30;;;3.33;;
50367;SDS011;36281;34.132;-118.018;2023-05-27T00:50:09;5.20;;;3.42;;
50367;SDS011;36281;34.132;-118.018;2023-05-27T00:52:39;7.70;;;3.30;;
50367;SDS011;36281;34.132;-118.018;2023-05-27T00:55:08;6.18;;;3.15;;
50367;SDS011;36281;34.132;-118.018;2023-05-27T00:57:38;5.68;;;3.28;;
50367;SDS011;36281;34.132;-118.018;2023-05-27T01:00:09;5.55;;;3.40;;
50367;SDS011;36281;34.132;-118.018;2023-05-27T01:02:39;5.00;;;3.22;;
50367;SDS011;36281;34.132;-118.018;2023-05-27T01:05:11;6.95;;;3.47;;
50367;SDS011;36281;34.132;-118.018;2023-05-27T01:07:45;3.63;;;3.00;;
50367;SDS011;36281;34.132;-118.018;2023-05-27T01:10:23;3.35;;;2.92;;
50367;SDS011;36281;34.132;-118.018;2023-05-27T01:13:05;6.22;;;3.42;;
50367;SDS011;36281;34.132;-118.018;2023-05-27T01:15:38;5.72;;;3.03;;
50367;SDS011;36281;34.132;-118.018;2023-05-27T01:18:09;5.07;;;2.92;;
50367;SDS011;36281;34.132;-118.018;2023-05-27T01:20:40;5.43;;;3.35;;
50367;SDS011;36281;34.132;-118.018;2023-05-27T01:23:13;4.45;;;3.00;;
50367;SDS011;36281;34.132;-118.018;2023-05-27T01:25:42;3.35;;;2.97;;
50367;SDS011;36281;34.132;-118.018;2023-05-27T01:28:12;5.10;;;3.25;;
50367;SDS011;36281;34.132;-118.018;2023-05-27T01:30:42;4.97;;;3.40;;
50367;SDS011;36281;34.132;-118.018;2023-05-27T01:33:12;6.50;;;3.15;;
50367;SDS011;36281;34.132;-118.018;2023-05-27T01:35:46;4.72;;;3.20;;
50367;SDS011;36281;34.132;-118.018;2023-05-27T01:38:21;4.93;;;3.03;;
50367;SDS011;36281;34.132;-118.018;2023-05-27T01:40:54;4.85;;;3.10;;
50367;SDS011;36281;34.132;-118.018;2023-05-27T01:43:23;6.75;;;2.97;;
50367;SDS011;36281;34.132;-118.018;2023-05-27T01:45:52;6.00;;;3.13;;
50367;SDS011;36281;34.132;-118.018;2023-05-27T01:48:22;5.28;;;3.28;;
50367;SDS011;36281;34.132;-118.018;2023-05-27T01:50:51;4.47;;;3.15;;
50367;SDS011;36281;34.132;-118.018;2023-05-27T01:53:22;4.07;;;3.00;;
50367;SDS011;36281;34.132;-118.018;2023-05-27T01:55:51;4.43;;;2.80;;
50367;SDS011;36281;34.132;-118.018;2023-05-27T01:58:20;4.32;;;3.10;;
50367;SDS011;36281;34.132;-118.018;2023-05-27T02:00:49;5.32;;;2.97;;
50367;SDS011;36281;34.132;-118.018;2023-05-27T02:03:18;6.13;;;3.05;;
50367;SDS011;36281;34.132;-118.018;2023-05-27T02:05:48;6.63;;;3.25;;
50367;SDS011;36281;34.132;-118.018;2023-05-27T02:08:17;5.05;;;3.03;;
50367;SDS011;36281;34.132;-118.018;2023-05-27T02:10:47;7.95;;;3.15;;
50367;SDS011;36281;34.132;-118.018;2023-05-27T02:13:17;6.03;;;3.10;;
50367;SDS011;36281;34.132;-118.018;2023-05-27T02:15:46;5.00;;;2.90;;
50367;SDS011;36281;34.132;-118.018;2023-05-27T02:18:15;4.38;;;2.78;;
50367;SDS011;36281;34.132;-118.018;2023-05-27T02:20:45;5.10;;;2.97;;
50367;SDS011;36281;34.132;-118.018;2023-05-27T02:23:15;5.00;;;3.30;;
50367;SDS011;36281;34.132;-118.018;2023-05-27T02:25:44;6.28;;;3.28;;
50367;SDS011;36281;34.132;-118.018;2023-05-27T02:28:15;4.70;;;3.10;;
50367;SDS011;36281;34.132;-118.018;2023-05-27T02:30:44;4.47;;;2.90;;
50367;SDS011;36281;34.132;-118.018;2023-05-27T02:33:13;4.65;;;2.95;;
50367;SDS011;36281;34.132;-118.018;2023-05-27T02:35:42;5.57;;;3.28;;
50367;SDS011;36281;34.132;-118.018;2023-05-27T02:38:11;4.95;;;3.30;;
50367;SDS011;36281;34.132;-118.018;2023-05-27T02:40:40;7.53;;;3.00;;
50367;SDS011;36281;34.132;-118.018;2023-05-27T02:43:09;5.03;;;3.08;;
50367;SDS011;36281;34.132;-118.018;2023-05-27T02:45:40;5.78;;;3.00;;
50367;SDS011;36281;34.132;-118.018;2023-05-27T02:48:09;7.25;;;3.25;;
50367;SDS011;36281;34.132;-118.018;2023-05-27T02:50:39;4.60;;;2.92;;
50367;SDS011;36281;34.132;-118.018;2023-05-27T02:53:08;5.05;;;3.40;;
50367;SDS011;36281;34.132;-118.018;2023-05-27T02:55:37;4.82;;;3.17;;
50367;SDS011;36281;34.132;-118.018;2023-05-27T02:58:06;4.85;;;2.88;;
50367;SDS011;36281;34.132;-118.018;2023-05-27T03:00:35;4.00;;;2.88;;
50367;SDS011;36281;34.132;-118.018;2023-05-27T03:03:06;5.72;;;3.25;;
50367;SDS011;36281;34.132;-118.018;2023-05-27T03:05:36;4.18;;;2.95;;
50367;SDS011;36281;34.132;-118.018;2023-05-27T03:08:05;5.50;;;3.40;;
50367;SDS011;36281;34.132;-118.018;2023-05-27T03:10:34;3.88;;;2.83;;
50367;SDS011;36281;34.132;-118.018;2023-05-27T03:13:03;6.82;;;3.40;;
50367;SDS011;36281;34.132;-118.018;2023-05-27T03:15:32;3.95;;;3.03;;
50367;SDS011;36281;34.132;-118.018;2023-05-27T03:18:02;4.00;;;2.80;;
50367;SDS011;36281;34.132;-118.018;2023-05-27T03:20:33;3.80;;;3.30;;
50367;SDS011;36281;34.132;-118.018;2023-05-27T03:23:03;5.13;;;3.28;;
50367;SDS011;36281;34.132;-118.018;2023-05-27T03:25:32;8.07;;;3.28;;
50367;SDS011;36281;34.132;-118.018;2023-05-27T03:28:01;4.05;;;2.90;;
50367;SDS011;36281;34.132;-118.018;2023-05-27T03:30:31;3.35;;;2.80;;
50367;SDS011;36281;34.132;-118.018;2023-05-27T03:33:00;7.05;;;3.05;;
50367;SDS011;36281;34.132;-118.018;2023-05-27T03:35:30;3.95;;;2.85;;
50367;SDS011;36281;34.132;-118.018;2023-05-27T03:38:01;3.85;;;2.80;;
50367;SDS011;36281;34.132;-118.018;2023-05-27T03:40:30;4.35;;;3.00;;
50367;SDS011;36281;34.132;-118.018;2023-05-27T03:43:00;4.68;;;2.88;;
50367;SDS011;36281;34.132;-118.018;2023-05-27T03:45:29;4.55;;;3.17;;
50367;SDS011;36281;34.132;-118.018;2023-05-27T03:47:58;3.67;;;2.90;;
50367;SDS011;36281;34.132;-118.018;2023-05-27T03:50:28;4.13;;;2.80;;
50367;SDS011;36281;34.132;-118.018;2023-05-27T03:52:58;4.63;;;3.15;;
50367;SDS011;36281;34.132;-118.018;2023-05-27T03:55:28;5.05;;;3.13;;
50367;SDS011;36281;34.132;-118.018;2023-05-27T03:57:57;4.13;;;2.95;;
50367;SDS011;36281;34.132;-118.018;2023-05-27T04:00:26;5.20;;;2.90;;
50367;SDS011;36281;34.132;-118.018;2023-05-27T04:02:56;3.85;;;2.80;;
50367;SDS011;36281;34.132;-118.018;2023-05-27T04:05:25;5.07;;;2.70;;
50367;SDS011;36281;34.132;-118.018;2023-05-27T04:07:54;5.32;;;2.92;;
50367;SDS011;36281;34.132;-118.018;2023-05-27T04:10:25;3.60;;;2.95;;
50367;SDS011;36281;34.132;-118.018;2023-05-27T04:12:54;5.38;;;3.38;;
50367;SDS011;36281;34.132;-118.018;2023-05-27T04:15:23;5.13;;;3.47;;
50367;SDS011;36281;34.132;-118.018;2023-05-27T04:17:53;3.20;;;2.60;;
50367;SDS011;36281;34.132;-118.018;2023-05-27T04:20:23;5.47;;;2.90;;
50367;SDS011;36281;34.132;-118.018;2023-05-27T04:22:52;4.32;;;3.10;;
50367;SDS011;36281;34.132;-118.018;2023-05-27T04:25:21;4.90;;;3.13;;
50367;SDS011;36281;34.132;-118.018;2023-05-27T04:27:52;5.20;;;2.90;;
50367;SDS011;36281;34.132;-118.018;2023-05-27T04:30:21;6.53;;;3.40;;
50367;SDS011;36281;34.132;-118.018;2023-05-27T04:32:50;4.35;;;3.22;;
50367;SDS011;36281;34.132;-118.018;2023-05-27T04:35:20;4.95;;;3.42;;
50367;SDS011;36281;34.132;-118.018;2023-05-27T04:37:49;4.95;;;3.20;;
50367;SDS011;36281;34.132;-118.018;2023-05-27T04:40:19;5.05;;;3.35;;
50367;SDS011;36281;34.132;-118.018;2023-05-27T04:42:48;4.63;;;3.40;;
50367;SDS011;36281;34.132;-118.018;2023-05-27T04:45:18;6.25;;;3.33;;
50367;SDS011;36281;34.132;-118.018;2023-05-27T04:47:47;5.50;;;3.22;;
50367;SDS011;36281;34.132;-118.018;2023-05-27T04:50:17;5.47;;;3.85;;
50367;SDS011;36281;34.132;-118.018;2023-05-27T04:52:46;3.38;;;2.85;;
50367;SDS011;36281;34.132;-118.018;2023-05-27T04:55:15;3.25;;;2.90;;
50367;SDS011;36281;34.132;-118.018;2023-05-27T04:57:44;6.35;;;3.00;;
50367;SDS011;36281;34.132;-118.018;2023-05-27T05:00:14;14.32;;;3.58;;
50367;SDS011;36281;34.132;-118.018;2023-05-27T05:02:52;3.17;;;2.67;;
50367;SDS011;36281;34.132;-118.018;2023-05-27T05:05:28;5.70;;;3.50;;
50367;SDS011;36281;34.132;-118.018;2023-05-27T05:07:58;4.03;;;3.25;;
50367;SDS011;36281;34.132;-118.018;2023-05-27T05:10:28;5.15;;;3.00;;
50367;SDS011;36281;34.132;-118.018;2023-05-27T05:12:58;4.30;;;2.92;;
50367;SDS011;36281;34.132;-118.018;2023-05-27T05:15:27;4.97;;;3.03;;
50367;SDS011;36281;34.132;-118.018;2023-05-27T05:17:58;4.57;;;3.20;;
50367;SDS011;36281;34.132;-118.018;2023-05-27T05:20:27;3.95;;;2.97;;
50367;SDS011;36281;34.132;-118.018;2023-05-27T05:22:57;5.20;;;3.45;;
50367;SDS011;36281;34.132;-118.018;2023-05-27T05:25:26;3.55;;;3.10;;
50367;SDS011;36281;34.132;-118.018;2023-05-27T05:27:57;5.72;;;3.20;;
50367;SDS011;36281;34.132;-118.018;2023-05-27T05:30:26;4.43;;;3.00;;
50367;SDS011;36281;34.132;-118.018;2023-05-27T05:32:55;6.32;;;3.30;;
50367;SDS011;36281;34.132;-118.018;2023-05-27T05:35:26;4.35;;;3.22;;
50367;SDS011;36281;34.132;-118.018;2023-05-27T05:37:55;4.45;;;3.20;;
50367;SDS011;36281;34.132;-118.018;2023-05-27T05:40:24;5.57;;;3.20;;
50367;SDS011;36281;34.132;-118.018;2023-05-27T05:42:54;4.45;;;2.83;;
50367;SDS011;36281;34.132;-118.018;2023-05-27T05:45:23;4.32;;;3.17;;
50367;SDS011;36281;34.132;-118.018;2023-05-27T05:47:53;6.05;;;3.13;;
50367;SDS011;36281;34.132;-118.018;2023-05-27T05:50:24;6.05;;;3.13;;
50367;SDS011;36281;34.132;-118.018;2023-05-27T05:52:54;4.35;;;3.00;;
50367;SDS011;36281;34.132;-118.018;2023-05-27T05:55:24;5.00;;;3.20;;
50367;SDS011;36281;34.132;-118.018;2023-05-27T05:57:54;6.18;;;3.22;;
50367;SDS011;36281;34.132;-118.018;2023-05-27T06:00:23;4.22;;;3.00;;
50367;SDS011;36281;34.132;-118.018;2023-05-27T06:02:52;4.60;;;3.35;;
50367;SDS011;36281;34.132;-118.018;2023-05-27T06:05:22;5.43;;;3.33;;
50367;SDS011;36281;34.132;-118.018;2023-05-27T06:07:53;5.55;;;3.42;;
50367;SDS011;36281;34.132;-118.018;2023-05-27T06:10:22;4.68;;;3.03;;
50367;SDS011;36281;34.132;-118.018;2023-05-27T06:12:52;5.05;;;3.15;;
50367;SDS011;36281;34.132;-118.018;2023-05-27T06:15:21;4.30;;;3.60;;
50367;SDS011;36281;34.132;-118.018;2023-05-27T06:17:50;4.43;;;3.38;;
50367;SDS011;36281;34.132;-118.018;2023-05-27T06:20:21;5.47;;;3.20;;
50367;SDS011;36281;34.132;-118.018;2023-05-27T06:22:53;3.80;;;3.10;;
50367;SDS011;36281;34.132;-118.018;2023-05-27T06:25:22;8.65;;;3.63;;
50367;SDS011;36281;34.132;-118.018;2023-05-27T06:27:51;7.40;;;3.97;;
50367;SDS011;36281;34.132;-118.018;2023-05-27T06:30:20;5.72;;;3.30;;
50367;SDS011;36281;34.132;-118.018;2023-05-27T06:32:50;4.90;;;3.67;;
50367;SDS011;36281;34.132;-118.018;2023-05-27T06:35:19;7.43;;;3.83;;
50367;SDS011;36281;34.132;-118.018;2023-05-27T06:37:48;6.97;;;3.78;;
50367;SDS011;36281;34.132;-118.018;2023-05-27T06:40:19;5.47;;;3.53;;
50367;SDS011;36281;34.132;-118.018;2023-05-27T06:42:49;6.15;;;4.05;;
50367;SDS011;36281;34.132;-118.018;2023-05-27T06:45:18;4.88;;;3.80;;
50367;SDS011;36281;34.132;-118.018;2023-05-27T06:47:47;5.43;;;3.58;;
50367;SDS011;36281;34.132;-118.018;2023-05-27T06:50:16;6.15;;;3.50;;
50367;SDS011;36281;34.132;-118.018;2023-05-27T06:52:45;5.65;;;3.92;;
50367;SDS011;36281;34.132;-118.018;2023-05-27T06:55:14;4.97;;;3.75;;
50367;SDS011;36281;34.132;-118.018;2023-05-27T06:57:45;5.70;;;3.88;;
50367;SDS011;36281;34.132;-118.018;2023-05-27T07:00:14;6.53;;;4.20;;
50367;SDS011;36281;34.132;-118.018;2023-05-27T07:02:44;4.88;;;4.20;;
50367;SDS011;36281;34.132;-118.018;2023-05-27T07:05:13;4.85;;;3.75;;
50367;SDS011;36281;34.132;-118.018;2023-05-27T07:07:42;6.78;;;4.13;;
50367;SDS011;36281;34.132;-118.018;2023-05-27T07:10:11;6.63;;;3.75;;
50367;SDS011;36281;34.132;-118.018;2023-05-27T07:12:40;6.25;;;4.43;;
50367;SDS011;36281;34.132;-118.018;2023-05-27T07:15:11;7.63;;;4.43;;
50367;SDS011;36281;34.132;-118.018;2023-05-27T07:17:40;5.25;;;3.80;;
50367;SDS011;36281;34.132;-118.018;2023-05-27T07:20:10;5.25;;;3.80;;
50367;SDS011;36281;34.132;-118.018;2023-05-27T07:22:40;5.40;;;3.92;;
50367;SDS011;36281;34.132;-118.018;2023-05-27T07:25:09;8.40;;;3.95;;
50367;SDS011;36281;34.132;-118.018;2023-05-27T07:27:38;8.38;;;4.05;;
50367;SDS011;36281;34.132;-118.018;2023-05-27T07:30:08;6.65;;;3.60;;
50367;SDS011;36281;34.132;-118.018;2023-05-27T07:32:39;6.55;;;3.95;;
50367;SDS011;36281;34.132;-118.018;2023-05-27T07:35:08;4.47;;;3.75;;
50367;SDS011;36281;34.132;-118.018;2023-05-27T07:37:37;6.30;;;3.55;;
50367;SDS011;36281;34.132;-118.018;2023-05-27T07:40:07;5.90;;;3.80;;
50367;SDS011;36281;34.132;-118.018;2023-05-27T07:42:36;5.00;;;3.60;;
50367;SDS011;36281;34.132;-118.018;2023-05-27T07:45:06;4.90;;;3.65;;
50367;SDS011;36281;34.132;-118.018;2023-05-27T07:47:35;6.18;;;4.15;;
50367;SDS011;36281;34.132;-118.018;2023-05-27T07:50:07;6.63;;;3.50;;
50367;SDS011;36281;34.132;-118.018;2023-05-27T07:52:36;6.07;;;3.70;;
50367;SDS011;36281;34.132;-118.018;2023-05-27T07:55:08;5.18;;;3.30;;
50367;SDS011;36281;34.132;-118.018;2023-05-27T07:57:37;8.20;;;3.90;;
50367;SDS011;36281;34.132;-118.018;2023-05-27T08:00:07;7.78;;;3.90;;
50367;SDS011;36281;34.132;-118.018;2023-05-27T08:02:36;5.88;;;3.63;;
50367;SDS011;36281;34.132;-118.018;2023-05-27T08:05:08;6.72;;;4.10;;
50367;SDS011;36281;34.132;-118.018;2023-05-27T08:07:38;5.10;;;3.88;;
50367;SDS011;36281;34.132;-118.018;2023-05-27T08:10:07;6.28;;;3.88;;
50367;SDS011;36281;34.132;-118.018;2023-05-27T08:12:37;4.93;;;3.97;;
50367;SDS011;36281;34.132;-118.018;2023-05-27T08:15:07;7.18;;;3.67;;
50367;SDS011;36281;34.132;-118.018;2023-05-27T08:17:36;5.88;;;3.40;;
50367;SDS011;36281;34.132;-118.018;2023-05-27T08:20:08;6.95;;;4.03;;
50367;SDS011;36281;34.132;-118.018;2023-05-27T08:22:37;7.45;;;4.30;;
50367;SDS011;36281;34.132;-118.018;2023-05-27T08:25:07;6.13;;;4.18;;
50367;SDS011;36281;34.132;-118.018;2023-05-27T08:27:42;5.65;;;4.10;;
50367;SDS011;36281;34.132;-118.018;2023-05-27T08:32:41;9.50;;;4.65;;
50367;SDS011;36281;34.132;-118.018;2023-05-27T08:35:12;6.78;;;4.25;;
50367;SDS011;36281;34.132;-118.018;2023-05-27T08:37:42;10.38;;;4.75;;
50367;SDS011;36281;34.132;-118.018;2023-05-27T08:40:12;7.70;;;4.20;;
50367;SDS011;36281;34.132;-118.018;2023-05-27T08:42:42;7.35;;;4.68;;
50367;SDS011;36281;34.132;-118.018;2023-05-27T08:45:12;6.28;;;4.40;;
50367;SDS011;36281;34.132;-118.018;2023-05-27T08:47:41;7.03;;;4.60;;
50367;SDS011;36281;34.132;-118.018;2023-05-27T08:50:13;8.13;;;4.50;;
50367;SDS011;36281;34.132;-118.018;2023-05-27T08:52:44;8.05;;;4.68;;
50367;SDS011;36281;34.132;-118.018;2023-05-27T08:55:15;10.27;;;4.85;;
50367;SDS011;36281;34.132;-118.018;2023-05-27T08:57:46;12.52;;;5.25;;
50367;SDS011;36281;34.132;-118.018;2023-05-27T09:00:18;7.03;;;4.45;;
50367;SDS011;36281;34.132;-118.018;2023-05-27T09:02:47;6.93;;;4.60;;
50367;SDS011;36281;34.132;-118.018;2023-05-27T09:05:18;8.02;;;4.63;;
50367;SDS011;36281;34.132;-118.018;2023-05-27T09:07:48;7.47;;;4.30;;
50367;SDS011;36281;34.132;-118.018;2023-05-27T09:10:18;6.32;;;4.72;;
50367;SDS011;36281;34.132;-118.018;2023-05-27T09:12:47;7.35;;;4.75;;
50367;SDS011;36281;34.132;-118.018;2023-05-27T09:15:18;9.20;;;4.65;;
50367;SDS011;36281;34.132;-118.018;2023-05-27T09:17:47;8.35;;;4.95;;
50367;SDS011;36281;34.132;-118.018;2023-05-27T09:20:23;7.72;;;4.88;;
50367;SDS011;36281;34.132;-118.018;2023-05-27T09:22:56;8.90;;;5.32;;
50367;SDS011;36281;34.132;-118.018;2023-05-27T09:25:25;9.57;;;5.07;;
50367;SDS011;36281;34.132;-118.018;2023-05-27T09:27:55;7.85;;;4.80;;
50367;SDS011;36281;34.132;-118.018;2023-05-27T09:30:24;6.75;;;4.38;;
50367;SDS011;36281;34.132;-118.018;2023-05-27T09:33:00;7.80;;;4.72;;
50367;SDS011;36281;34.132;-118.018;2023-05-27T09:35:38;9.77;;;4.57;;
50367;SDS011;36281;34.132;-118.018;2023-05-27T09:38:08;10.00;;;4.25;;
50367;SDS011;36281;34.132;-118.018;2023-05-27T09:40:38;7.47;;;4.75;;
50367;SDS011;36281;34.132;-118.018;2023-05-27T09:43:12;9.45;;;4.40;;
50367;SDS011;36281;34.132;-118.018;2023-05-27T09:45:43;6.03;;;4.43;;
50367;SDS011;36281;34.132;-118.018;2023-05-27T09:48:13;5.95;;;4.15;;
50367;SDS011;36281;34.132;-118.018;2023-05-27T09:50:49;7.78;;;4.43;;
50367;SDS011;36281;34.132;-118.018;2023-05-27T09:53:20;7.50;;;4.60;;
50367;SDS011;36281;34.132;-118.018;2023-05-27T09:55:51;7.28;;;4.40;;
50367;SDS011;36281;34.132;-118.018;2023-05-27T09:58:21;5.43;;;4.30;;
50367;SDS011;36281;34.132;-118.018;2023-05-27T10:00:51;7.65;;;4.82;;
50367;SDS011;36281;34.132;-118.018;2023-05-27T10:03:21;9.63;;;4.65;;
50367;SDS011;36281;34.132;-118.018;2023-05-27T10:05:57;7.10;;;4.72;;
50367;SDS011;36281;34.132;-118.018;2023-05-27T10:08:28;9.32;;;5.18;;
50367;SDS011;36281;34.132;-118.018;2023-05-27T10:10:57;7.55;;;5.10;;
50367;SDS011;36281;34.132;-118.018;2023-05-27T10:13:27;7.82;;;4.72;;
50367;SDS011;36281;34.132;-118.018;2023-05-27T10:15:57;7.90;;;4.68;;
50367;SDS011;36281;34.132;-118.018;2023-05-27T10:18:26;6.70;;;4.65;;
50367;SDS011;36281;34.132;-118.018;2023-05-27T10:20:59;8.77;;;4.30;;
50367;SDS011;36281;34.132;-118.018;2023-05-27T10:23:31;8.80;;;4.97;;
50367;SDS011;36281;34.132;-118.018;2023-05-27T10:26:01;9.93;;;4.75;;
50367;SDS011;36281;34.132;-118.018;2023-05-27T10:28:34;12.15;;;5.45;;
50367;SDS011;36281;34.132;-118.018;2023-05-27T10:31:07;10.40;;;5.15;;
50367;SDS011;36281;34.132;-118.018;2023-05-27T10:33:38;6.50;;;4.90;;
50367;SDS011;36281;34.132;-118.018;2023-05-27T10:36:12;9.82;;;4.85;;
50367;SDS011;36281;34.132;-118.018;2023-05-27T10:38:42;8.90;;;5.38;;
50367;SDS011;36281;34.132;-118.018;2023-05-27T10:41:22;12.70;;;5.53;;
50367;SDS011;36281;34.132;-118.018;2023-05-27T10:43:56;8.48;;;5.07;;
50367;SDS011;36281;34.132;-118.018;2023-05-27T10:46:26;6.13;;;4.75;;
50367;SDS011;36281;34.132;-118.018;2023-05-27T10:49:13;7.63;;;5.10;;
50367;SDS011;36281;34.132;-118.018;2023-05-27T10:51:47;9.70;;;4.40;;
50367;SDS011;36281;34.132;-118.018;2023-05-27T10:54:16;11.55;;;5.15;;
50367;SDS011;36281;34.132;-118.018;2023-05-27T10:56:55;8.38;;;4.78;;
50367;SDS011;36281;34.132;-118.018;2023-05-27T10:59:25;8.45;;;4.70;;
50367;SDS011;36281;34.132;-118.018;2023-05-27T11:02:07;10.07;;;5.22;;
50367;SDS011;36281;34.132;-118.018;2023-05-27T11:04:36;7.50;;;5.00;;
50367;SDS011;36281;34.132;-118.018;2023-05-27T11:07:07;8.00;;;4.85;;
50367;SDS011;36281;34.132;-118.018;2023-05-27T11:09:44;9.43;;;4.95;;
50367;SDS011;36281;34.132;-118.018;2023-05-27T11:12:14;11.65;;;5.25;;
50367;SDS011;36281;34.132;-118.018;2023-05-27T11:14:46;9.05;;;4.60;;
50367;SDS011;36281;34.132;-118.018;2023-05-27T11:17:16;9.18;;;4.50;;
50367;SDS011;36281;34.132;-118.018;2023-05-27T11:19:46;7.65;;;4.75;;
50367;SDS011;36281;34.132;-118.018;2023-05-27T11:22:18;7.82;;;4.65;;
50367;SDS011;36281;34.132;-118.018;2023-05-27T11:24:57;8.93;;;5.03;;
50367;SDS011;36281;34.132;-118.018;2023-05-27T11:27:32;8.45;;;4.60;;
50367;SDS011;36281;34.132;-118.018;2023-05-27T11:30:06;9.15;;;4.88;;
50367;SDS011;36281;34.132;-118.018;2023-05-27T11:32:37;7.07;;;4.47;;
50367;SDS011;36281;34.132;-118.018;2023-05-27T11:35:13;7.18;;;4.95;;
50367;SDS011;36281;34.132;-118.018;2023-05-27T11:37:46;10.40;;;4.65;;
50367;SDS011;36281;34.132;-118.018;2023-05-27T11:40:17;7.32;;;4.60;;
50367;SDS011;36281;34.132;-118.018;2023-05-27T11:42:46;7.43;;;4.47;;
50367;SDS011;36281;34.132;-118.018;2023-05-27T11:45:15;9.80;;;4.93;;
50367;SDS011;36281;34.132;-118.018;2023-05-27T11:47:46;8.75;;;5.07;;
50367;SDS011;36281;34.132;-118.018;2023-05-27T11:50:19;8.57;;;4.88;;
50367;SDS011;36281;34.132;-118.018;2023-05-27T11:52:54;7.30;;;4.72;;
50367;SDS011;36281;34.132;-118.018;2023-05-27T11:55:24;7.97;;;4.63;;
50367;SDS011;36281;34.132;-118.018;2023-05-27T11:57:53;9.45;;;4.93;;
50367;SDS011;36281;34.132;-118.018;2023-05-27T12:00:22;11.90;;;4.95;;
50367;SDS011;36281;34.132;-118.018;2023-05-27T12:02:51;9.77;;;5.30;;
50367;SDS011;36281;34.132;-118.018;2023-05-27T12:05:20;8.25;;;5.10;;
50367;SDS011;36281;34.132;-118.018;2023-05-27T12:08:02;8.60;;;4.95;;
50367;SDS011;36281;34.132;-118.018;2023-05-27T12:10:33;9.63;;;4.50;;
50367;SDS011;36281;34.132;-118.018;2023-05-27T12:13:05;7.60;;;4.28;;
50367;SDS011;36281;34.132;-118.018;2023-05-27T12:15:34;7.22;;;4.13;;
50367;SDS011;36281;34.132;-118.018;2023-05-27T12:18:03;7.60;;;4.75;;
50367;SDS011;36281;34.132;-118.018;2023-05-27T12:20:33;6.75;;;4.53;;
50367;SDS011;36281;34.132;-118.018;2023-05-27T12:23:04;8.30;;;4.75;;
50367;SDS011;36281;34.132;-118.018;2023-05-27T12:25:33;8.75;;;4.50;;
50367;SDS011;36281;34.132;-118.018;2023-05-27T12:28:02;10.23;;;4.97;;
50367;SDS011;36281;34.132;-118.018;2023-05-27T12:30:33;7.70;;;4.70;;
50367;SDS011;36281;34.132;-118.018;2023-05-27T12:33:02;8.48;;;4.70;;
50367;SDS011;36281;34.132;-118.018;2023-05-27T12:35:33;8.15;;;4.70;;
50367;SDS011;36281;34.132;-118.018;2023-05-27T12:38:02;11.48;;;4.57;;
50367;SDS011;36281;34.132;-118.018;2023-05-27T12:40:33;7.43;;;5.18;;
50367;SDS011;36281;34.132;-118.018;2023-05-27T12:43:02;8.73;;;4.65;;
50367;SDS011;36281;34.132;-118.018;2023-05-27T12:45:31;8.98;;;4.80;;
50367;SDS011;36281;34.132;-118.018;2023-05-27T12:48:00;6.97;;;4.53;;
50367;SDS011;36281;34.132;-118.018;2023-05-27T12:50:31;6.88;;;4.60;;
50367;SDS011;36281;34.132;-118.018;2023-05-27T12:53:04;7.20;;;4.38;;
50367;SDS011;36281;34.132;-118.018;2023-05-27T12:55:33;7.40;;;4.40;;
50367;SDS011;36281;34.132;-118.018;2023-05-27T12:58:03;8.40;;;4.40;;
50367;SDS011;36281;34.132;-118.018;2023-05-27T13:00:32;11.60;;;4.78;;
50367;SDS011;36281;34.132;-118.018;2023-05-27T13:03:02;10.45;;;4.82;;
50367;SDS011;36281;34.132;-118.018;2023-05-27T13:05:31;7.07;;;4.45;;
50367;SDS011;36281;34.132;-118.018;2023-05-27T13:08:01;7.28;;;4.70;;
50367;SDS011;36281;34.132;-118.018;2023-05-27T13:10:34;6.57;;;4.10;;
50367;SDS011;36281;34.132;-118.018;2023-05-27T13:13:03;9.48;;;4.78;;
50367;SDS011;36281;34.132;-118.018;2023-05-27T13:15:32;13.63;;;4.50;;
50367;SDS011;36281;34.132;-118.018;2023-05-27T13:18:01;7.72;;;4.93;;
50367;SDS011;36281;34.132;-118.018;2023-05-27T13:20:34;10.02;;;5.25;;
50367;SDS011;36281;34.132;-118.018;2023-05-27T13:23:03;8.60;;;4.80;;
50367;SDS011;36281;34.132;-118.018;2023-05-27T13:25:35;6.57;;;4.45;;
50367;SDS011;36281;34.132;-118.018;2023-05-27T13:28:04;7.63;;;4.75;;
50367;SDS011;36281;34.132;-118.018;2023-05-27T13:30:33;8.23;;;4.68;;
50367;SDS011;36281;34.132;-118.018;2023-05-27T13:33:02;8.57;;;4.32;;
50367;SDS011;36281;34.132;-118.018;2023-05-27T13:35:31;8.05;;;4.50;;
50367;SDS011;36281;34.132;-118.018;2023-05-27T13:38:00;8.85;;;4.88;;
50367;SDS011;36281;34.132;-118.018;2023-05-27T13:40:31;8.43;;;4.75;;
50367;SDS011;36281;34.132;-118.018;2023-05-27T13:43:02;6.63;;;4.85;;
50367;SDS011;36281;34.132;-118.018;2023-05-27T13:45:31;8.45;;;4.75;;
50367;SDS011;36281;34.132;-118.018;2023-05-27T13:48:00;8.48;;;4.75;;
50367;SDS011;36281;34.132;-118.018;2023-05-27T13:50:29;16.40;;;5.03;;
50367;SDS011;36281;34.132;-118.018;2023-05-27T13:52:59;10.98;;;4.82;;
50367;SDS011;36281;34.132;-118.018;2023-05-27T13:55:28;9.68;;;5.00;;
50367;SDS011;36281;34.132;-118.018;2023-05-27T13:57:58;9.52;;;4.90;;
50367;SDS011;36281;34.132;-118.018;2023-05-27T14:00:29;7.68;;;4.70;;
50367;SDS011;36281;34.132;-118.018;2023-05-27T14:02:58;11.27;;;5.20;;
50367;SDS011;36281;34.132;-118.018;2023-05-27T14:05:27;9.40;;;5.40;;
50367;SDS011;36281;34.132;-118.018;2023-05-27T14:07:57;7.63;;;4.70;;
50367;SDS011;36281;34.132;-118.018;2023-05-27T14:10:27;8.18;;;5.00;;
50367;SDS011;36281;34.132;-118.018;2023-05-27T14:12:57;11.02;;;4.90;;
50367;SDS011;36281;34.132;-118.018;2023-05-27T14:15:28;8.27;;;5.03;;
50367;SDS011;36281;34.132;-118.018;2023-05-27T14:18:00;9.38;;;5.45;;
50367;SDS011;36281;34.132;-118.018;2023-05-27T14:20:33;7.97;;;5.75;;
50367;SDS011;36281;34.132;-118.018;2023-05-27T14:23:02;8.25;;;5.60;;
50367;SDS011;36281;34.132;-118.018;2023-05-27T14:25:32;10.27;;;5.95;;
50367;SDS011;36281;34.132;-118.018;2023-05-27T14:28:01;15.18;;;6.68;;